Time;durP1;ratioP1;P1;durP2;ratioP2;P2;SDS_P1;SDS_P2;PMS_P1;PMS_P2;Temp;Humidity;BMP_temperature;BMP_pressure;BME280_temperature;BME280_humidity;BME280_pressure;Samples;Min_cycle;Max_cycle;Signal;HPM_P1;HPM_P2
2021/12/01 00:00:22;;;;;;;1.52;0.70;;;19.90;51.10;;;;;;2278765;62;20176;-65
2021/12/01 00:02:53;;;;;;;1.55;0.80;;;19.90;51.10;;;;;;2278830;62;20192;-64
2021/12/01 00:05:20;;;;;;;2.28;0.65;;;19.90;51.10;;;;;;2278523;62;20199;-64
2021/12/01 00:07:46;;;;;;;0.98;0.60;;;19.90;51.10;;;;;;2278775;62;20154;-65
2021/12/01 00:10:12;;;;;;;1.65;0.80;;;19.90;51.10;;;;;;2278760;62;20891;-64
2021/12/01 00:12:38;;;;;;;1.35;0.60;;;19.90;51.10;;;;;;2278833;62;20166;-65
2021/12/01 00:15:05;;;;;;;1.17;0.60;;;19.90;51.10;;;;;;2278695;62;20231;-65
2021/12/01 00:17:31;;;;;;;0.65;0.57;;;19.90;51.10;;;;;;2278741;62;20166;-65
2021/12/01 00:19:59;;;;;;;0.80;0.70;;;19.90;51.20;;;;;;2278636;62;20171;-64
2021/12/01 00:22:26;;;;;;;1.05;0.50;;;19.80;51.10;;;;;;2278636;62;20270;-64
2021/12/01 00:24:53;;;;;;;0.90;0.80;;;19.80;51.10;;;;;;2278749;62;20214;-64
2021/12/01 00:27:19;;;;;;;1.77;0.93;;;19.80;51.10;;;;;;2278653;62;20240;-64
2021/12/01 00:29:45;;;;;;;1.20;0.63;;;19.80;51.20;;;;;;2278641;62;20767;-65
2021/12/01 00:32:11;;;;;;;1.50;0.70;;;19.80;51.10;;;;;;2278639;62;20187;-65
2021/12/01 00:34:37;;;;;;;1.90;0.82;;;19.80;51.20;;;;;;2278643;62;20552;-64
2021/12/01 00:37:03;;;;;;;1.58;0.77;;;19.80;51.20;;;;;;2278440;62;20700;-65
2021/12/01 00:39:29;;;;;;;0.95;0.57;;;19.80;51.20;;;;;;2278624;62;20202;-65
2021/12/01 00:41:56;;;;;;;1.00;0.70;;;19.80;51.20;;;;;;2278500;62;20176;-64
2021/12/01 00:44:23;;;;;;;2.38;0.60;;;19.80;51.40;;;;;;2278591;62;20669;-65
2021/12/01 00:46:56;;;;;;;1.35;0.60;;;19.70;51.10;;;;;;2278503;62;20188;-65
2021/12/01 00:49:22;;;;;;;1.00;0.50;;;19.70;51.20;;;;;;2278515;62;20331;-65
2021/12/01 00:51:48;;;;;;;1.88;0.60;;;19.70;51.20;;;;;;2278426;62;20139;-65
2021/12/01 00:54:17;;;;;;;1.85;0.73;;;19.60;51.10;;;;;;2278501;62;20641;-65
2021/12/01 00:56:44;;;;;;;0.90;0.60;;;19.70;51.20;;;;;;2278560;62;20163;-65
2021/12/01 00:59:10;;;;;;;1.15;0.60;;;19.70;51.20;;;;;;2278456;62;20302;-65
2021/12/01 01:01:36;;;;;;;1.08;0.60;;;19.70;51.20;;;;;;2278449;62;20187;-65
2021/12/01 01:04:03;;;;;;;0.68;0.50;;;19.60;51.20;;;;;;2278450;62;20241;-64
2021/12/01 01:06:28;;;;;;;1.65;0.70;;;19.70;51.30;;;;;;2278370;62;20243;-64
2021/12/01 01:08:54;;;;;;;0.80;0.60;;;19.70;51.30;;;;;;2278465;62;20155;-65
2021/12/01 01:16:50;;;;;;;1.23;0.60;;;19.60;51.30;;;;;;2277840;62;20695;-65
2021/12/01 01:19:16;;;;;;;1.17;0.52;;;19.60;51.30;;;;;;2278421;62;20175;-65
2021/12/01 01:21:51;;;;;;;1.70;0.70;;;19.60;51.30;;;;;;2278372;62;20196;-65
2021/12/01 01:24:17;;;;;;;1.35;0.50;;;19.60;51.30;;;;;;2278364;62;20188;-64
2021/12/01 01:26:43;;;;;;;1.67;1.00;;;19.60;51.30;;;;;;2278370;62;20548;-65
2021/12/01 01:29:09;;;;;;;0.80;0.63;;;19.60;51.30;;;;;;2278388;62;20218;-64
2021/12/01 01:31:35;;;;;;;0.73;0.60;;;19.50;51.30;;;;;;2278317;62;20206;-64
2021/12/01 01:34:02;;;;;;;1.25;0.70;;;19.60;51.30;;;;;;2278282;62;20716;-64
2021/12/01 01:36:28;;;;;;;1.85;0.60;;;19.60;51.40;;;;;;2278120;62;20734;-64
2021/12/01 01:38:55;;;;;;;1.27;0.50;;;19.60;51.40;;;;;;2278297;62;20188;-64
2021/12/01 01:41:21;;;;;;;1.20;1.00;;;19.60;51.40;;;;;;2278164;62;20154;-64
2021/12/01 01:43:49;;;;;;;1.17;0.80;;;19.50;51.30;;;;;;2278269;62;20302;-64
2021/12/01 01:46:16;;;;;;;1.40;0.70;;;19.60;51.40;;;;;;2278152;62;20174;-64
2021/12/01 01:48:48;;;;;;;1.60;0.57;;;19.60;51.40;;;;;;2278208;62;20190;-64
2021/12/01 01:51:17;;;;;;;2.05;0.75;;;19.60;51.40;;;;;;2278175;62;20178;-64
2021/12/01 01:53:43;;;;;;;3.25;0.80;;;19.60;51.40;;;;;;2278146;62;20163;-64
2021/12/01 01:56:11;;;;;;;1.85;0.77;;;19.60;51.50;;;;;;2278156;62;20166;-65
2021/12/01 01:58:37;;;;;;;1.77;0.70;;;19.50;51.40;;;;;;2278195;63;20312;-64
2021/12/01 02:01:08;;;;;;;1.88;0.70;;;19.50;51.40;;;;;;2278079;63;20597;-64
2021/12/01 02:03:38;;;;;;;0.65;0.60;;;19.60;51.50;;;;;;2278211;63;20183;-64
2021/12/01 02:06:05;;;;;;;1.65;0.60;;;19.50;51.40;;;;;;2278019;62;20200;-64
2021/12/01 02:08:33;;;;;;;1.50;0.70;;;19.50;51.40;;;;;;2278091;63;20246;-64
2021/12/01 02:11:01;;;;;;;2.00;1.33;;;19.50;51.40;;;;;;2278121;63;20239;-64
2021/12/01 02:13:27;;;;;;;1.30;0.60;;;19.50;51.50;;;;;;2278092;63;20208;-64
2021/12/01 02:15:54;;;;;;;2.00;1.00;;;19.50;51.40;;;;;;2277983;63;20204;-64
2021/12/01 02:18:20;;;;;;;1.08;0.70;;;19.50;51.50;;;;;;2278043;63;20226;-64
2021/12/01 02:21:07;;;;;;;1.92;0.95;;;19.50;51.50;;;;;;2278028;63;20187;-64
2021/12/01 02:23:41;;;;;;;1.65;0.80;;;19.50;51.40;;;;;;2278013;63;20262;-64
2021/12/01 02:26:08;;;;;;;2.38;0.80;;;19.50;51.50;;;;;;2277992;62;20721;-64
2021/12/01 02:28:36;;;;;;;2.30;1.15;;;19.50;51.50;;;;;;2279332;62;20166;-65
2021/12/01 02:31:02;;;;;;;1.38;0.85;;;19.50;51.50;;;;;;2279392;62;20327;-64
2021/12/01 02:33:28;;;;;;;1.60;0.80;;;19.50;51.50;;;;;;2279268;62;20715;-65
2021/12/01 02:35:54;;;;;;;2.17;0.80;;;19.50;51.50;;;;;;2279210;62;20163;-65
2021/12/01 02:38:21;;;;;;;1.50;0.70;;;19.40;51.50;;;;;;2279230;62;20170;-65
2021/12/01 02:40:47;;;;;;;1.35;0.82;;;19.50;51.50;;;;;;2279177;62;20656;-65
2021/12/01 02:43:13;;;;;;;1.92;0.90;;;19.40;51.50;;;;;;2279144;62;20252;-65
2021/12/01 02:45:40;;;;;;;1.00;0.73;;;19.40;51.50;;;;;;2279225;62;20386;-64
2021/12/01 02:48:10;;;;;;;1.75;1.00;;;19.40;51.50;;;;;;2279249;62;20276;-65
2021/12/01 02:50:36;;;;;;;1.90;0.70;;;19.50;51.60;;;;;;2279182;62;20196;-65
2021/12/01 02:53:02;;;;;;;1.33;0.80;;;19.40;51.50;;;;;;2279157;62;20158;-64
2021/12/01 02:55:29;;;;;;;1.42;0.90;;;19.40;51.50;;;;;;2279169;62;20180;-65
2021/12/01 02:57:59;;;;;;;0.70;0.68;;;19.40;51.50;;;;;;2279232;62;20180;-65
2021/12/01 03:00:25;;;;;;;1.08;0.80;;;19.40;51.60;;;;;;2279143;62;20218;-65
2021/12/01 03:02:56;;;;;;;1.95;0.90;;;19.40;51.60;;;;;;2279118;62;20667;-64
2021/12/01 03:05:23;;;;;;;1.30;0.80;;;19.40;51.60;;;;;;2279092;62;20311;-65
2021/12/01 03:07:49;;;;;;;1.20;0.68;;;19.40;51.60;;;;;;2279098;62;20204;-65
2021/12/01 03:10:15;;;;;;;0.90;0.60;;;19.40;51.60;;;;;;2279090;62;20284;-65
2021/12/01 03:12:42;;;;;;;1.88;0.80;;;19.40;51.60;;;;;;2279126;62;20761;-64
2021/12/01 03:15:10;;;;;;;1.63;0.80;;;19.40;51.60;;;;;;2279037;62;20632;-65
2021/12/01 03:17:37;;;;;;;2.22;0.77;;;19.40;51.60;;;;;;2279082;62;20680;-65
2021/12/01 03:20:07;;;;;;;1.98;0.68;;;19.40;51.60;;;;;;2279042;62;20332;-64
2021/12/01 03:22:33;;;;;;;1.08;0.75;;;19.40;51.70;;;;;;2278908;62;20283;-64
2021/12/01 03:24:59;;;;;;;1.08;0.70;;;19.50;51.70;;;;;;2278979;62;20167;-64
2021/12/01 03:27:24;;;;;;;1.05;0.50;;;19.50;51.70;;;;;;2278989;62;20197;-65
2021/12/01 03:29:50;;;;;;;1.15;0.60;;;19.40;51.70;;;;;;2279013;62;20682;-64
2021/12/01 03:32:17;;;;;;;1.23;0.60;;;19.40;51.70;;;;;;2278951;62;20793;-65
2021/12/01 03:34:44;;;;;;;0.80;0.68;;;19.40;51.70;;;;;;2278987;62;20193;-65
2021/12/01 03:37:11;;;;;;;0.93;0.60;;;19.30;51.70;;;;;;2278874;62;20329;-65
2021/12/01 03:39:37;;;;;;;1.48;0.70;;;19.40;51.70;;;;;;2278502;62;20155;-64
2021/12/01 03:42:04;;;;;;;1.23;0.80;;;19.40;51.70;;;;;;2278855;62;20291;-65
2021/12/01 03:44:31;;;;;;;1.20;0.70;;;19.30;51.70;;;;;;2278939;62;20222;-64
2021/12/01 03:46:57;;;;;;;1.35;0.60;;;19.30;51.70;;;;;;2278846;62;20174;-64
2021/12/01 03:49:23;;;;;;;1.15;0.60;;;19.40;51.80;;;;;;2278824;62;20192;-65
2021/12/01 03:51:49;;;;;;;0.85;0.60;;;19.30;51.80;;;;;;2278889;62;20359;-65
2021/12/01 03:54:15;;;;;;;1.30;0.60;;;19.30;51.80;;;;;;2278833;62;20175;-65
2021/12/01 03:56:41;;;;;;;1.80;0.77;;;19.30;51.80;;;;;;2278825;62;20669;-64
2021/12/01 03:59:08;;;;;;;2.03;0.70;;;19.30;51.80;;;;;;2278819;62;20196;-65
2021/12/01 04:01:36;;;;;;;1.13;0.80;;;19.30;51.80;;;;;;2278781;62;20227;-64
2021/12/01 04:04:02;;;;;;;0.95;0.50;;;19.30;51.80;;;;;;2278784;62;20155;-64
2021/12/01 04:06:28;;;;;;;1.33;0.57;;;19.30;51.80;;;;;;2278721;62;20178;-65
2021/12/01 04:08:55;;;;;;;1.17;0.50;;;19.30;51.80;;;;;;2278748;62;20184;-65
2021/12/01 04:11:21;;;;;;;0.98;0.60;;;19.30;51.80;;;;;;2278796;62;20191;-64
2021/12/01 04:13:48;;;;;;;1.75;0.60;;;19.30;51.80;;;;;;2278700;62;20697;-65
2021/12/01 04:16:14;;;;;;;2.45;0.90;;;19.30;51.80;;;;;;2278667;62;20170;-65
2021/12/01 04:18:40;;;;;;;0.82;0.60;;;19.30;51.80;;;;;;2278737;62;20214;-65
2021/12/01 04:21:06;;;;;;;1.40;0.70;;;19.30;51.90;;;;;;2278655;62;20304;-64
2021/12/01 04:23:34;;;;;;;1.00;0.68;;;19.30;51.90;;;;;;2278686;62;20202;-64
2021/12/01 04:26:01;;;;;;;0.80;0.65;;;19.30;51.90;;;;;;2278646;62;20214;-65
2021/12/01 04:28:28;;;;;;;1.05;0.50;;;19.30;51.90;;;;;;2278661;62;20677;-64
2021/12/01 04:30:54;;;;;;;1.92;0.50;;;19.30;51.90;;;;;;2278637;62;20217;-64
2021/12/01 04:33:19;;;;;;;0.57;0.40;;;19.30;51.90;;;;;;2278640;62;20634;-64
2021/12/01 04:35:47;;;;;;;1.98;0.50;;;19.30;51.90;;;;;;2278559;62;20304;-64
2021/12/01 04:38:13;;;;;;;1.52;0.75;;;19.30;51.90;;;;;;2278557;62;20193;-64
2021/12/01 04:40:39;;;;;;;1.70;0.70;;;19.30;51.90;;;;;;2278453;62;20165;-64
2021/12/01 04:43:05;;;;;;;2.00;0.80;;;19.30;51.90;;;;;;2278499;62;20155;-64
2021/12/01 04:45:32;;;;;;;1.10;0.60;;;19.30;51.90;;;;;;2278447;62;20287;-64
2021/12/01 04:47:58;;;;;;;1.52;0.73;;;19.30;51.90;;;;;;2278521;62;20174;-64
2021/12/01 04:50:27;;;;;;;1.23;0.50;;;19.30;52.00;;;;;;2278534;62;20358;-65
2021/12/01 04:52:55;;;;;;;1.10;0.70;;;19.20;51.90;;;;;;2278492;62;20319;-65
2021/12/01 04:55:22;;;;;;;1.40;0.70;;;19.20;51.90;;;;;;2278430;62;20408;-65
2021/12/01 04:57:49;;;;;;;1.38;0.57;;;19.20;51.90;;;;;;2278483;62;20198;-65
2021/12/01 05:00:23;;;;;;;0.90;0.50;;;19.20;51.90;;;;;;2278506;62;20166;-65
2021/12/01 05:02:49;;;;;;;1.67;0.60;;;19.10;51.90;;;;;;2278453;62;20221;-65
2021/12/01 05:05:15;;;;;;;1.10;0.50;;;19.20;51.90;;;;;;2278403;62;20172;-65
2021/12/01 05:07:41;;;;;;;1.20;0.68;;;19.20;52.00;;;;;;2278386;62;20762;-64
2021/12/01 05:10:07;;;;;;;1.55;0.60;;;19.20;52.00;;;;;;2278433;62;20156;-65
2021/12/01 05:12:34;;;;;;;0.70;0.47;;;19.20;52.00;;;;;;2278504;62;20828;-65
2021/12/01 05:15:00;;;;;;;0.77;0.50;;;19.20;52.00;;;;;;2278390;62;20214;-64
2021/12/01 05:17:25;;;;;;;0.77;0.77;;;19.20;52.20;;;;;;2278360;62;20180;-65
2021/12/01 05:19:51;;;;;;;1.40;0.70;;;19.20;52.00;;;;;;2278377;62;20569;-65
2021/12/01 05:22:18;;;;;;;0.60;0.57;;;19.30;52.00;;;;;;2278278;62;20139;-65
2021/12/01 05:24:43;;;;;;;1.08;0.65;;;19.20;52.00;;;;;;2278352;62;20747;-65
2021/12/01 05:27:09;;;;;;;1.40;0.60;;;19.20;52.00;;;;;;2278365;62;20194;-65
2021/12/01 05:29:36;;;;;;;1.80;0.73;;;19.20;52.00;;;;;;2278376;62;20727;-65
2021/12/01 05:32:02;;;;;;;1.38;0.60;;;19.20;52.10;;;;;;2278337;62;20588;-65
2021/12/01 05:34:28;;;;;;;1.45;0.70;;;19.20;52.10;;;;;;2278289;62;20190;-64
2021/12/01 05:36:59;;;;;;;1.33;0.55;;;19.20;52.10;;;;;;2278233;62;20180;-66
2021/12/01 05:39:29;;;;;;;0.73;0.40;;;19.20;52.10;;;;;;2278234;62;20158;-64
2021/12/01 05:41:56;;;;;;;1.48;0.38;;;19.20;52.10;;;;;;2278190;62;20397;-64
2021/12/01 05:44:22;;;;;;;2.28;0.43;;;19.20;52.10;;;;;;2278156;62;20166;-65
2021/12/01 05:46:49;;;;;;;0.57;0.40;;;19.30;52.20;;;;;;2278136;62;20162;-65
2021/12/01 05:49:21;;;;;;;0.47;0.30;;;19.30;52.10;;;;;;2278451;62;20166;-66
2021/12/01 05:51:47;;;;;;;1.10;0.52;;;19.30;52.10;;;;;;2278397;62;20167;-65
2021/12/01 05:54:13;;;;;;;0.65;0.50;;;19.40;52.00;;;;;;2278241;62;20174;-65
2021/12/01 05:56:40;;;;;;;0.60;0.43;;;19.50;51.90;;;;;;2278145;62;20264;-64
2021/12/01 05:59:06;;;;;;;1.00;0.55;;;19.60;51.80;;;;;;2278132;62;20170;-64
2021/12/01 06:01:33;;;;;;;1.42;0.50;;;19.70;51.70;;;;;;2277793;62;20170;-64
2021/12/01 06:03:59;;;;;;;0.75;0.50;;;19.80;51.60;;;;;;2278126;63;20321;-64
2021/12/01 06:06:25;;;;;;;0.95;0.60;;;19.90;51.50;;;;;;2278034;63;20450;-64
2021/12/01 06:08:51;;;;;;;0.88;0.45;;;20.00;51.40;;;;;;2278031;63;20700;-64
2021/12/01 06:11:16;;;;;;;0.77;0.38;;;20.10;51.40;;;;;;2278121;63;20328;-64
2021/12/01 06:13:44;;;;;;;0.80;0.55;;;20.00;51.20;;;;;;2278083;63;20155;-65
2021/12/01 06:16:09;;;;;;;1.35;0.43;;;20.20;51.10;;;;;;2278079;63;20363;-64
2021/12/01 06:18:35;;;;;;;0.35;0.30;;;20.30;51.10;;;;;;2278074;63;20196;-65
2021/12/01 06:21:02;;;;;;;1.00;0.40;;;20.30;51.00;;;;;;2277985;63;20184;-65
2021/12/01 06:23:28;;;;;;;1.33;0.60;;;20.30;51.00;;;;;;2278030;63;20799;-65
2021/12/01 06:25:54;;;;;;;1.10;0.50;;;20.40;51.00;;;;;;2278084;63;20170;-65
2021/12/01 06:28:20;;;;;;;0.57;0.30;;;20.40;50.90;;;;;;2278136;63;20696;-65
2021/12/01 06:30:46;;;;;;;0.57;0.30;;;20.40;50.90;;;;;;2278055;63;20151;-65
2021/12/01 06:33:11;;;;;;;0.40;0.32;;;20.40;50.90;;;;;;2277939;63;20207;-66
2021/12/01 06:35:37;;;;;;;0.55;0.40;;;20.40;50.90;;;;;;2277945;63;20577;-65
2021/12/01 06:38:04;;;;;;;0.35;0.20;;;20.40;50.80;;;;;;2277866;63;20814;-66
2021/12/01 06:40:30;;;;;;;1.15;0.45;;;20.40;50.80;;;;;;2277897;63;20701;-65
2021/12/01 06:42:56;;;;;;;1.42;0.50;;;20.40;51.40;;;;;;2277840;63;20180;-65
2021/12/01 06:45:23;;;;;;;0.82;0.40;;;20.40;50.70;;;;;;2277805;63;20311;-65
2021/12/01 06:47:49;;;;;;;0.40;0.30;;;20.40;50.70;;;;;;2277948;63;20247;-65
2021/12/01 06:50:16;;;;;;;0.30;0.20;;;20.40;50.70;;;;;;2277943;63;20229;-65
2021/12/01 06:52:42;;;;;;;0.43;0.22;;;20.50;50.70;;;;;;2277842;63;20296;-65
2021/12/01 06:55:09;;;;;;;0.50;0.30;;;20.50;50.70;;;;;;2277935;63;20199;-65
2021/12/01 06:57:35;;;;;;;0.50;0.30;;;20.50;50.60;;;;;;2277875;63;20621;-65
2021/12/01 07:00:05;;;;;;;0.30;0.20;;;20.50;50.60;;;;;;2277869;63;20718;-65
2021/12/01 07:02:34;;;;;;;0.40;0.32;;;20.50;51.20;;;;;;2277765;63;20358;-65
2021/12/01 07:05:00;;;;;;;0.38;0.30;;;20.50;50.60;;;;;;2277799;63;20340;-65
2021/12/01 07:07:26;;;;;;;0.68;0.30;;;20.50;50.50;;;;;;2277707;63;20164;-66
2021/12/01 07:09:53;;;;;;;0.77;0.30;;;20.50;50.50;;;;;;2277767;63;20151;-65
2021/12/01 07:12:19;;;;;;;0.82;0.40;;;20.50;50.50;;;;;;2277825;62;20166;-65
2021/12/01 07:14:44;;;;;;;0.30;0.28;;;20.50;50.50;;;;;;2278607;62;20172;-66
2021/12/01 07:17:10;;;;;;;1.02;0.30;;;20.60;50.50;;;;;;2279101;62;20351;-65
2021/12/01 07:19:36;;;;;;;0.40;0.28;;;20.60;50.50;;;;;;2279109;62;20239;-65
2021/12/01 07:22:02;;;;;;;0.57;0.30;;;20.60;50.50;;;;;;2279043;62;20646;-65
2021/12/01 07:24:29;;;;;;;0.30;0.20;;;20.60;50.50;;;;;;2278964;62;20367;-66
2021/12/01 07:26:55;;;;;;;0.30;0.30;;;20.60;50.50;;;;;;2279067;62;20187;-65
2021/12/01 07:29:21;;;;;;;0.60;0.28;;;20.60;50.40;;;;;;2279060;62;20170;-65
2021/12/01 07:31:48;;;;;;;0.55;0.40;;;20.60;50.40;;;;;;2279073;62;20244;-65
2021/12/01 07:34:15;;;;;;;0.30;0.20;;;20.60;50.40;;;;;;2279051;62;20170;-66
2021/12/01 07:36:40;;;;;;;1.05;0.38;;;20.60;50.40;;;;;;2278947;62;20202;-65
2021/12/01 07:39:06;;;;;;;0.82;0.22;;;20.60;50.40;;;;;;2278998;62;20243;-66
2021/12/01 07:41:32;;;;;;;0.40;0.40;;;20.40;50.30;;;;;;2278970;62;20267;-66
2021/12/01 07:43:58;;;;;;;0.52;0.43;;;20.50;50.40;;;;;;2279636;62;20240;-64
2021/12/01 07:46:24;;;;;;;0.98;0.30;;;20.60;50.50;;;;;;2278941;62;20159;-65
2021/12/01 07:48:50;;;;;;;0.82;0.43;;;20.50;50.40;;;;;;2279024;62;20282;-66
2021/12/01 07:51:16;;;;;;;1.38;0.38;;;20.60;50.50;;;;;;2279262;62;20240;-65
2021/12/01 07:53:42;;;;;;;1.38;0.50;;;20.60;50.50;;;;;;2271387;62;20600;-66
2021/12/01 07:56:08;;;;;;;1.52;0.20;;;20.60;50.50;;;;;;2278869;62;20730;-66
2021/12/01 07:58:34;;;;;;;0.80;0.30;;;20.60;50.50;;;;;;2278857;62;20288;-66
2021/12/01 08:01:00;;;;;;;0.50;0.30;;;20.60;50.60;;;;;;2278799;62;20688;-65
2021/12/01 08:03:31;;;;;;;1.15;0.43;;;20.60;50.70;;;;;;2278795;62;20184;-65
2021/12/01 08:05:57;;;;;;;1.80;0.63;;;20.60;50.70;;;;;;2278721;62;20162;-65
2021/12/01 08:08:23;;;;;;;2.10;0.40;;;20.60;50.70;;;;;;2278714;62;20159;-66
2021/12/01 08:10:49;;;;;;;2.92;0.55;;;20.60;50.70;;;;;;2278785;62;20241;-66
2021/12/01 08:13:15;;;;;;;1.15;0.40;;;20.60;50.70;;;;;;2278809;62;20151;-66
2021/12/01 08:15:41;;;;;;;1.20;0.47;;;20.70;50.80;;;;;;2278725;62;20174;-66
2021/12/01 08:18:07;;;;;;;0.80;0.50;;;20.60;50.80;;;;;;2278765;62;20326;-66
2021/12/01 08:20:33;;;;;;;0.68;0.40;;;20.60;50.80;;;;;;2276068;62;20185;-65
2021/12/01 08:22:59;;;;;;;0.60;0.38;;;20.60;50.90;;;;;;2278630;62;20167;-66
2021/12/01 08:25:25;;;;;;;1.55;0.32;;;20.60;50.90;;;;;;2278472;62;20178;-66
2021/12/01 08:27:51;;;;;;;1.13;0.40;;;20.60;51.00;;;;;;2278703;62;20175;-65
2021/12/01 08:30:17;;;;;;;1.33;0.40;;;20.50;51.00;;;;;;2278645;62;20205;-65
2021/12/01 08:32:46;;;;;;;2.78;0.30;;;20.50;51.10;;;;;;2278707;62;20155;-66
2021/12/01 08:35:15;;;;;;;1.83;0.38;;;20.50;51.10;;;;;;2278612;62;20204;-65
2021/12/01 08:37:42;;;;;;;1.33;0.50;;;20.40;51.10;;;;;;2278637;62;20326;-66
2021/12/01 08:40:13;;;;;;;1.98;0.47;;;20.40;51.20;;;;;;2278610;62;20179;-63
2021/12/01 08:42:39;;;;;;;0.60;0.20;;;20.40;51.20;;;;;;2278537;62;20166;-65
2021/12/01 08:45:06;;;;;;;2.40;0.45;;;20.30;51.30;;;;;;2278647;62;20584;-65
2021/12/01 08:47:33;;;;;;;1.27;0.40;;;20.30;51.30;;;;;;2278585;62;20162;-65
2021/12/01 08:49:59;;;;;;;1.35;0.50;;;20.20;51.30;;;;;;2278626;62;20189;-66
2021/12/01 08:52:25;;;;;;;1.58;0.52;;;20.20;51.40;;;;;;2278497;62;20229;-66
2021/12/01 08:54:52;;;;;;;1.90;0.77;;;20.20;51.40;;;;;;2278541;62;20182;-66
2021/12/01 08:57:18;;;;;;;2.33;0.88;;;20.20;51.50;;;;;;2278619;62;20192;-65
2021/12/01 08:59:48;;;;;;;1.48;0.70;;;20.10;51.50;;;;;;2278525;62;20190;-66
2021/12/01 09:02:15;;;;;;;1.73;0.70;;;20.10;51.50;;;;;;2278409;62;20167;-66
2021/12/01 09:04:42;;;;;;;2.47;0.60;;;20.10;51.50;;;;;;2278456;62;20539;-66
2021/12/01 09:07:08;;;;;;;5.07;0.70;;;20.00;51.50;;;;;;2278375;62;20178;-65
2021/12/01 09:09:34;;;;;;;0.98;0.55;;;20.00;51.60;;;;;;2278437;62;20288;-66
2021/12/01 09:12:00;;;;;;;3.85;0.75;;;20.00;51.60;;;;;;2278442;62;20211;-65
2021/12/01 09:14:32;;;;;;;2.22;0.70;;;20.00;51.70;;;;;;2278452;62;20196;-65
2021/12/01 09:16:58;;;;;;;2.15;0.70;;;20.00;51.70;;;;;;2278421;62;20217;-65
2021/12/01 09:19:24;;;;;;;2.53;0.50;;;20.00;51.70;;;;;;2278413;62;20155;-67
2021/12/01 09:21:50;;;;;;;1.40;0.65;;;19.90;51.70;;;;;;2278329;62;20231;-65
2021/12/01 09:24:18;;;;;;;2.17;0.70;;;19.90;51.70;;;;;;2278352;62;20226;-66
2021/12/01 09:26:44;;;;;;;3.72;1.10;;;19.80;51.70;;;;;;2278387;62;20182;-66
2021/12/01 09:29:10;;;;;;;1.25;0.60;;;19.90;51.80;;;;;;2278380;62;20311;-66
2021/12/01 09:31:36;;;;;;;1.83;0.68;;;19.90;51.80;;;;;;2278389;62;20624;-65
2021/12/01 09:34:02;;;;;;;0.90;0.40;;;19.90;51.80;;;;;;2278364;62;20341;-67
2021/12/01 09:36:29;;;;;;;2.75;0.65;;;19.80;51.80;;;;;;2277858;62;20650;-67
2021/12/01 09:38:56;;;;;;;2.33;0.63;;;19.80;51.80;;;;;;2278257;62;20412;-65
2021/12/01 09:41:23;;;;;;;1.67;0.63;;;19.80;51.90;;;;;;2278262;62;20174;-65
2021/12/01 09:43:49;;;;;;;1.33;0.55;;;19.80;51.90;;;;;;2278293;62;20192;-65
2021/12/01 09:46:15;;;;;;;3.05;0.65;;;19.80;52.00;;;;;;2278251;62;20150;-65
2021/12/01 09:48:42;;;;;;;3.75;0.60;;;19.80;52.60;;;;;;2278272;62;20612;-64
2021/12/01 09:51:09;;;;;;;1.20;0.40;;;19.70;52.00;;;;;;2278260;62;20192;-64
2021/12/01 09:53:35;;;;;;;2.72;0.70;;;19.70;52.00;;;;;;2278108;62;20673;-64
2021/12/01 09:56:02;;;;;;;1.42;0.70;;;19.70;52.10;;;;;;2278236;62;20166;-65
2021/12/01 09:58:31;;;;;;;2.53;0.57;;;19.70;52.20;;;;;;2278240;62;20187;-66
2021/12/01 10:01:00;;;;;;;2.45;0.70;;;19.70;52.30;;;;;;2278191;62;20705;-66
2021/12/01 10:03:27;;;;;;;3.15;0.88;;;19.60;52.30;;;;;;2278193;63;20784;-65
2021/12/01 10:06:17;;;;;;;2.47;0.90;;;19.70;52.40;;;;;;2278096;63;20179;-65
2021/12/01 10:08:55;;;;;;;2.15;0.60;;;19.70;52.50;;;;;;2278105;63;20179;-65
2021/12/01 10:11:29;;;;;;;4.45;0.75;;;19.60;52.60;;;;;;2278108;63;20288;-65
2021/12/01 10:13:58;;;;;;;2.40;0.60;;;19.60;52.60;;;;;;2278117;63;20274;-66
2021/12/01 10:16:30;;;;;;;2.35;0.90;;;19.60;53.30;;;;;;2278109;63;20651;-65
2021/12/01 10:18:58;;;;;;;1.77;0.63;;;19.70;52.80;;;;;;2278128;63;20210;-64
2021/12/01 10:21:35;;;;;;;2.30;0.52;;;19.60;52.70;;;;;;2278051;63;20200;-65
2021/12/01 10:24:03;;;;;;;1.67;0.57;;;19.60;52.70;;;;;;2278007;63;20682;-65
2021/12/01 10:26:30;;;;;;;2.58;0.60;;;19.60;52.80;;;;;;2278080;63;20274;-65
2021/12/01 10:28:59;;;;;;;2.97;0.60;;;19.60;52.80;;;;;;2278065;63;20569;-65
2021/12/01 10:31:31;;;;;;;1.33;0.63;;;19.60;52.80;;;;;;2277975;63;20167;-65
2021/12/01 10:34:12;;;;;;;4.10;1.00;;;19.60;52.80;;;;;;2277988;63;20174;-65
2021/12/01 10:36:38;;;;;;;2.78;0.80;;;19.60;52.80;;;;;;2277962;63;20325;-65
2021/12/01 10:39:06;;;;;;;3.63;0.63;;;19.60;52.90;;;;;;2277948;63;20135;-65
2021/12/01 10:41:36;;;;;;;2.60;0.82;;;19.60;52.90;;;;;;2277851;63;20229;-65
2021/12/01 10:44:28;;;;;;;1.60;0.60;;;19.50;52.90;;;;;;2277957;63;20280;-65
2021/12/01 10:46:55;;;;;;;2.08;0.80;;;19.60;52.90;;;;;;2276072;63;20175;-66
2021/12/01 10:49:43;;;;;;;2.08;0.60;;;19.50;52.90;;;;;;2279157;62;20225;-65
2021/12/01 10:52:32;;;;;;;2.95;0.77;;;19.50;52.90;;;;;;2279322;62;20275;-65
2021/12/01 10:55:25;;;;;;;2.22;0.60;;;19.50;52.80;;;;;;2279177;62;20356;-64
2021/12/01 10:58:03;;;;;;;2.95;0.80;;;19.50;52.80;;;;;;2277538;62;20222;-65
2021/12/01 11:00:38;;;;;;;4.00;0.80;;;19.40;53.00;;;;;;2279221;62;20267;-66
2021/12/01 11:03:06;;;;;;;2.10;0.88;;;19.40;53.00;;;;;;2279243;62;20209;-64
2021/12/01 11:05:38;;;;;;;3.22;1.00;;;19.40;52.80;;;;;;2279143;62;20819;-65
2021/12/01 11:08:10;;;;;;;3.45;1.20;;;19.40;52.80;;;;;;2279204;62;20673;-65
2021/12/01 11:10:36;;;;;;;5.07;1.08;;;19.50;52.80;;;;;;2279120;62;20276;-65
2021/12/01 11:13:04;;;;;;;3.47;1.40;;;19.40;52.80;;;;;;2279094;62;20193;-65
2021/12/01 11:15:37;;;;;;;5.13;1.50;;;19.50;52.80;;;;;;2279106;62;20589;-65
2021/12/01 11:18:04;;;;;;;4.55;1.25;;;19.50;52.70;;;;;;2278873;62;20252;-65
2021/12/01 11:20:48;;;;;;;6.85;1.55;;;19.40;52.60;;;;;;2279101;62;20199;-64
2021/12/01 11:23:30;;;;;;;5.28;1.70;;;19.50;52.60;;;;;;2279101;62;20175;-65
2021/12/01 11:26:05;;;;;;;7.95;1.75;;;19.50;52.70;;;;;;2279042;62;20189;-66
2021/12/01 11:28:33;;;;;;;7.45;1.63;;;19.40;52.70;;;;;;2279108;62;20214;-65
2021/12/01 11:31:06;;;;;;;6.40;1.63;;;19.50;52.80;;;;;;2279030;62;20167;-65
2021/12/01 11:33:32;;;;;;;5.00;1.50;;;19.40;52.70;;;;;;2279003;62;20196;-65
2021/12/01 11:36:07;;;;;;;5.50;1.50;;;19.40;52.80;;;;;;2278887;62;20316;-65
2021/12/01 11:38:34;;;;;;;5.97;1.40;;;19.50;52.90;;;;;;2278983;62;20235;-65
2021/12/01 11:41:01;;;;;;;8.60;1.92;;;19.40;52.90;;;;;;2278881;62;20171;-65
2021/12/01 11:43:30;;;;;;;7.68;1.83;;;19.50;53.00;;;;;;2278848;62;20208;-65
2021/12/01 11:45:56;;;;;;;5.80;1.50;;;19.50;53.10;;;;;;2278911;62;20320;-65
2021/12/01 11:48:28;;;;;;;9.25;2.10;;;19.50;53.20;;;;;;2278923;62;20185;-65
2021/12/01 11:51:15;;;;;;;6.22;1.58;;;19.50;53.30;;;;;;2278931;62;20174;-65
2021/12/01 11:54:04;;;;;;;7.47;2.00;;;19.50;53.30;;;;;;2278888;62;20272;-65
2021/12/01 11:56:36;;;;;;;6.85;1.90;;;19.50;53.30;;;;;;2245607;63;20279;-66
2021/12/01 11:59:18;;;;;;;7.85;1.67;;;19.40;53.30;;;;;;2245338;63;20185;-66
2021/12/01 12:02:15;;;;;;;4.97;1.67;;;19.50;53.40;;;;;;2245613;63;20817;-65
2021/12/01 12:04:46;;;;;;;9.30;1.80;;;19.50;53.40;;;;;;2222037;64;20368;-66
2021/12/01 12:07:29;;;;;;;6.93;1.50;;;19.50;53.50;;;;;;2222045;64;20256;-66
2021/12/01 12:10:19;;;;;;;8.05;1.60;;;19.50;53.50;;;;;;2222106;64;20217;-65
2021/12/01 12:13:00;;;;;;;5.93;1.90;;;19.50;53.50;;;;;;2222105;64;20163;-65
2021/12/01 12:15:54;;;;;;;9.40;1.50;;;19.50;53.60;;;;;;2222043;64;20196;-65
2021/12/01 12:18:35;;;;;;;6.45;1.75;;;19.50;53.50;;;;;;2222155;64;20193;-65
2021/12/01 12:21:26;;;;;;;6.68;1.40;;;19.50;53.50;;;;;;2222018;64;20699;-65
2021/12/01 12:24:01;;;;;;;6.55;1.70;;;19.50;54.20;;;;;;2224340;64;20435;-67
2021/12/01 12:26:44;;;;;;;8.43;2.00;;;19.50;53.60;;;;;;2229884;64;20626;-66
2021/12/01 12:29:17;;;;;;;5.70;1.60;;;19.50;53.60;;;;;;2229730;64;20171;-65
2021/12/01 12:31:44;;;;;;;3.88;1.38;;;19.50;53.60;;;;;;2229708;64;20359;-65
2021/12/01 12:34:19;;;;;;;5.55;1.83;;;19.50;53.60;;;;;;2241150;63;20230;-65
2021/12/01 12:36:57;;;;;;;11.45;1.75;;;19.50;53.70;;;;;;2245354;63;20191;-66
2021/12/01 12:39:43;;;;;;;6.05;1.50;;;19.50;53.60;;;;;;2245334;63;20324;-66
2021/12/01 12:42:09;;;;;;;;;;;19.50;53.70;;;;;;2271775;62;20163;-66
2021/12/01 12:44:50;;;;;;;6.50;2.00;;;19.50;53.60;;;;;;2278578;62;20539;-65
2021/12/01 12:47:38;;;;;;;5.85;1.50;;;19.40;53.70;;;;;;2282816;62;20776;-65
2021/12/01 12:50:23;;;;;;;9.65;1.58;;;19.50;53.70;;;;;;2286494;62;20174;-65
2021/12/01 12:52:50;;;;;;;;;;;19.40;53.60;;;;;;2287210;62;20652;-65
2021/12/01 12:55:19;;;;;;;6.32;1.50;;;19.40;53.50;;;;;;2286703;62;20038;-65
2021/12/01 12:58:03;;;;;;;5.03;1.48;;;19.40;53.70;;;;;;2286638;62;20644;-65
2021/12/01 13:00:35;;;;;;;9.07;1.67;;;19.40;53.50;;;;;;2286708;62;20313;-65